Aeroporto :
LOGIN :

Iscrizione | Disclaimer

   EN    FR    IT 

 










Sommario :    VFR   VFR Marginale   IFR   IFR Intensivo   IFR Molto Intensivo
Visibilità : 
Base nubi : 
>= 8 km
>= 3000ft
5 / 8 km
1000 / 3000 ft
1500m / 5 km
500 / 1000 ft
800 / 1500m
200 / 500 ft
< 800m
< 200 ft
Simboli :   Temporali  Nebbia  Neve Forte  Precipitazioni Forti  Vento > 20 kt
SIGMETs :   Varie  Temporali  Ghiacco  Turbolenza  Onda orograficha  Ceneri Vulcaniche






- Altitudine del aeroporto : 17 ft
- Codice IATA : MPL


LFMT - Montpellier Méditerranée

ULTIMO METAR :
  • 141230Z AUTO 14010KT 9999 FEW007 BKN024 OVC033 21/19 Q1015 BECMG 13015G25KT

METARs OBSOLETI :
  • 141200Z AUTO 14010KT 9999 SCT008 BKN032 22/19 Q1015 BECMG 13015G25KT
  • 141130Z AUTO 14012KT 9999 SCT029 22/19 Q1015 BECMG 13015G25KT
  • 141100Z AUTO 13011KT 9999 FEW010 BKN024 BKN110 22/19 Q1016 BECMG 13015G25KT
  • 141030Z AUTO 13012KT 9999 FEW018 SCT026 BKN140 22/19 Q1016 BECMG 13015G25KT
  • 141000Z AUTO 14011KT 9000 BKN014 BKN028 BKN100 21/18 Q1016 BECMG 13015G25KT SCT015 BKN110
  • 140930Z AUTO 12011KT 9999 SCT016 BKN028 OVC180 22/18 Q1016 BECMG 13015G25KT
  • 140900Z AUTO 10010KT 9999 SCT015 BKN025 OVC094 21/18 Q1016 BECMG 13015G25KT
  • 140830Z AUTO 08010KT 9000 BKN012 BKN017 OVC024 21/17 Q1016 BECMG BKN008 BKN110

TAF AMD TAF LFMT
Valido dal 14 a 09 ore il 15 a 09 ore UTC


140911Z 1409/1509 13015G25KT 9999 SCT015 BKN110
BECMG 1420/1422 30010KT BKN008 BKN055
TEMPO 1420/1423 3000 RA
ATIS : +33 4 67 13 11 70



MetMap, La meteo Aeronautica in un colpo d'occhio ! - Copyright ORBIFLY Dicembre 2007 - Disclaimer

ORBIFLY MET'MAP TEAM :

Programmazione e sviluppo : Alexandra Zaïnal
Concezione : Baudouin d'Aumeries
Supporto tecnico e logistico : Manuel Goepfert
Aiuto : Marc-Olivier Méhu
Aiuto per la traduzione : Arnaldo La Scala




FONTI E CREDITI :

   NOAA